createdAt,value
2023-04-16T00:00:07.180Z,3.10
2023-04-16T00:01:29.415Z,3.10
2023-04-16T00:02:31.426Z,3.00
2023-04-16T00:03:33.887Z,3.63
2023-04-16T00:04:36.050Z,3.13
2023-04-16T00:05:38.376Z,3.95
2023-04-16T00:06:40.220Z,3.03
2023-04-16T00:07:42.211Z,2.38
2023-04-16T00:08:44.229Z,3.42
2023-04-16T00:09:46.930Z,3.53
2023-04-16T00:10:48.845Z,3.40
2023-04-16T00:11:50.906Z,2.67
2023-04-16T00:12:52.803Z,3.17
2023-04-16T00:13:55.017Z,3.20
2023-04-16T00:14:56.964Z,2.53
2023-04-16T00:15:59.351Z,3.17
2023-04-16T00:17:01.351Z,2.47
2023-04-16T00:18:03.949Z,1.60
2023-04-16T00:19:05.961Z,3.20
2023-04-16T00:20:09.281Z,2.55
2023-04-16T00:21:11.392Z,4.00
2023-04-16T00:22:13.676Z,2.33
2023-04-16T00:23:15.626Z,2.40
2023-04-16T00:24:17.629Z,1.88
2023-04-16T00:25:19.577Z,2.65
2023-04-16T00:26:21.866Z,1.63
2023-04-16T00:27:23.724Z,1.80
2023-04-16T00:28:26.689Z,2.88
2023-04-16T00:29:29.093Z,3.22
2023-04-16T00:30:31.390Z,3.83
2023-04-16T00:31:34.175Z,1.55
2023-04-16T00:33:38.080Z,4.03
2023-04-16T00:34:40.542Z,2.30
2023-04-16T00:35:42.412Z,3.40
2023-04-16T00:36:44.360Z,2.40
2023-04-16T00:37:46.649Z,4.65
2023-04-16T00:38:48.916Z,4.07
2023-04-16T00:39:51.260Z,3.55
2023-04-16T00:40:53.132Z,4.13
2023-04-16T00:41:55.089Z,3.95
2023-04-16T00:42:57.369Z,3.25
2023-04-16T00:43:59.292Z,2.22
2023-04-16T00:45:01.270Z,3.95
2023-04-16T00:46:05.868Z,2.20
2023-04-16T00:47:08.719Z,4.38
2023-04-16T00:48:11.013Z,2.58
2023-04-16T00:49:12.997Z,3.17
2023-04-16T00:50:15.008Z,3.05
2023-04-16T00:51:21.625Z,1.90
2023-04-16T00:52:23.526Z,1.75
2023-04-16T00:53:25.889Z,2.60
2023-04-16T00:54:27.985Z,2.30
2023-04-16T00:55:30.320Z,3.13
2023-04-16T00:56:33.351Z,4.93
2023-04-16T00:57:35.463Z,2.58
2023-04-16T00:58:37.414Z,3.45
2023-04-16T00:59:40.125Z,2.10
2023-04-16T01:00:42.199Z,5.47
2023-04-16T01:01:44.255Z,3.25
2023-04-16T01:02:46.317Z,4.05
2023-04-16T01:03:49.884Z,1.58
2023-04-16T01:04:52.461Z,3.47
2023-04-16T01:05:54.517Z,3.03
2023-04-16T01:06:56.836Z,2.35
2023-04-16T01:08:01.307Z,2.30
2023-04-16T01:09:05.835Z,2.33
2023-04-16T01:10:08.172Z,4.13
2023-04-16T01:11:11.286Z,2.70
2023-04-16T01:12:13.921Z,3.28
2023-04-16T01:13:16.329Z,3.22
2023-04-16T01:14:18.245Z,4.85
2023-04-16T01:15:20.206Z,4.07
2023-04-16T01:16:22.194Z,3.95
2023-04-16T01:17:24.636Z,1.90
2023-04-16T01:18:26.917Z,2.45
2023-04-16T01:19:31.468Z,3.20
2023-04-16T01:20:36.242Z,3.90
2023-04-16T01:21:38.557Z,1.67
2023-04-16T01:22:40.649Z,2.33
2023-04-16T01:23:42.563Z,2.45
2023-04-16T01:24:45.753Z,2.22
2023-04-16T01:25:48.182Z,3.92
2023-04-16T01:26:50.050Z,4.38
2023-04-16T01:27:55.037Z,1.98
2023-04-16T01:28:57.053Z,3.15
2023-04-16T01:29:59.290Z,2.83
2023-04-16T01:31:01.201Z,5.15
2023-04-16T01:32:03.281Z,4.82
2023-04-16T01:33:05.261Z,2.67
2023-04-16T01:34:07.608Z,3.53
2023-04-16T01:35:09.558Z,1.98
2023-04-16T01:36:11.540Z,2.38
2023-04-16T01:37:13.684Z,2.47
2023-04-16T01:38:16.020Z,2.13
2023-04-16T01:39:19.588Z,2.38
2023-04-16T01:40:21.563Z,2.10
2023-04-16T01:41:23.436Z,2.58
2023-04-16T01:42:25.780Z,1.52
2023-04-16T01:43:27.821Z,4.07
2023-04-16T01:44:31.088Z,3.20
2023-04-16T01:45:34.548Z,2.10
2023-04-16T01:46:38.097Z,2.65
2023-04-16T01:47:40.927Z,3.10
2023-04-16T01:49:45.828Z,3.88
2023-04-16T01:51:49.883Z,2.08
2023-04-16T01:52:51.865Z,1.77
2023-04-16T01:53:54.278Z,1.63
2023-04-16T01:54:56.680Z,2.10
2023-04-16T01:55:58.549Z,1.95
2023-04-16T01:57:01.954Z,1.92
2023-04-16T01:58:03.952Z,1.60
2023-04-16T01:59:06.286Z,2.50
2023-04-16T02:00:08.993Z,2.05
2023-04-16T02:01:11.116Z,1.58
2023-04-16T02:02:16.567Z,1.75
2023-04-16T02:03:19.062Z,1.30
2023-04-16T02:04:21.214Z,2.03
2023-04-16T02:05:23.171Z,2.03
2023-04-16T02:06:25.241Z,2.17
2023-04-16T02:07:27.689Z,2.58
2023-04-16T02:08:29.691Z,3.25
2023-04-16T02:09:34.213Z,1.92
2023-04-16T02:10:36.184Z,2.22
2023-04-16T02:11:38.818Z,1.63
2023-04-16T02:12:40.817Z,2.78
2023-04-16T02:13:42.697Z,1.38
2023-04-16T02:14:44.786Z,2.33
2023-04-16T02:15:48.376Z,1.85
2023-04-16T02:16:50.310Z,2.03
2023-04-16T02:17:57.029Z,1.60
2023-04-16T02:18:59.133Z,1.85
2023-04-16T02:20:03.450Z,2.45
2023-04-16T02:21:06.678Z,3.47
2023-04-16T02:22:08.644Z,1.83
2023-04-16T02:23:11.018Z,1.30
2023-04-16T02:24:13.449Z,2.95
2023-04-16T02:25:15.596Z,1.48
2023-04-16T02:26:17.720Z,2.70
2023-04-16T02:27:19.601Z,2.08
2023-04-16T02:28:21.909Z,1.80
2023-04-16T02:29:23.872Z,1.58
2023-04-16T02:30:25.822Z,2.88
2023-04-16T02:31:28.934Z,2.30
2023-04-16T02:32:31.495Z,1.92
2023-04-16T02:33:33.504Z,3.08
2023-04-16T02:34:35.680Z,1.70
2023-04-16T02:35:38.655Z,1.83
2023-04-16T02:36:43.436Z,2.92
2023-04-16T02:37:45.343Z,2.35
2023-04-16T02:38:47.461Z,1.73
2023-04-16T02:40:12.458Z,1.95
2023-04-16T02:41:17.634Z,2.30
2023-04-16T02:42:19.509Z,2.67
2023-04-16T02:43:21.688Z,1.88
2023-04-16T02:44:23.667Z,1.70
2023-04-16T02:45:26.110Z,2.17
2023-04-16T02:46:28.247Z,4.30
2023-04-16T02:47:30.238Z,3.50
2023-04-16T02:48:32.984Z,2.75
2023-04-16T02:50:38.073Z,1.75
2023-04-16T02:51:44.690Z,1.92
2023-04-16T02:52:46.686Z,1.85
2023-04-16T02:53:49.008Z,1.92
2023-04-16T02:54:52.236Z,3.90
2023-04-16T02:55:56.287Z,1.95
2023-04-16T02:56:58.283Z,3.33
2023-04-16T02:58:00.889Z,3.28
2023-04-16T02:59:02.830Z,2.17
2023-04-16T03:00:05.362Z,2.00
2023-04-16T03:01:07.263Z,2.17
2023-04-16T03:02:09.652Z,2.17
2023-04-16T03:03:11.650Z,3.67
2023-04-16T03:04:13.719Z,2.30
2023-04-16T03:05:16.128Z,1.75
2023-04-16T03:06:18.376Z,0.95
2023-04-16T03:07:20.310Z,2.13
2023-04-16T03:08:22.234Z,1.30
2023-04-16T03:09:24.217Z,3.65
2023-04-16T03:10:26.802Z,1.67
2023-04-16T03:11:28.717Z,1.55
2023-04-16T03:12:30.832Z,3.28
2023-04-16T03:13:32.781Z,1.70
2023-04-16T03:14:35.104Z,1.70
2023-04-16T03:15:37.119Z,2.25
2023-04-16T03:16:38.990Z,2.25
2023-04-16T03:17:40.985Z,1.58
2023-04-16T03:18:43.320Z,1.80
2023-04-16T03:19:45.243Z,1.05
2023-04-16T03:20:51.971Z,1.60
2023-04-16T03:21:53.898Z,2.03
2023-04-16T03:22:57.425Z,1.50
2023-04-16T03:23:59.408Z,1.27
2023-04-16T03:25:01.482Z,2.00
2023-04-16T03:26:03.574Z,1.08
2023-04-16T03:27:05.952Z,3.05
2023-04-16T03:28:07.853Z,1.50
2023-04-16T03:29:10.000Z,5.32
2023-04-16T03:30:13.059Z,2.55
2023-04-16T03:31:15.643Z,1.75
2023-04-16T03:32:17.865Z,2.13
2023-04-16T03:33:20.926Z,2.22
2023-04-16T03:34:22.937Z,1.92
2023-04-16T03:35:25.545Z,3.42
2023-04-16T03:36:27.560Z,1.45
2023-04-16T03:37:29.839Z,1.85
2023-04-16T03:38:31.741Z,1.65
2023-04-16T03:39:34.752Z,1.05
2023-04-16T03:40:36.753Z,1.00
2023-04-16T03:41:38.807Z,2.58
2023-04-16T03:42:40.732Z,1.98
2023-04-16T03:43:43.006Z,1.58
2023-04-16T03:44:45.108Z,1.75
2023-04-16T03:45:47.539Z,3.58
2023-04-16T03:46:49.608Z,4.07
2023-04-16T03:47:53.082Z,1.60
2023-04-16T03:48:55.149Z,2.22
2023-04-16T03:49:57.150Z,2.40
2023-04-16T03:50:59.356Z,1.65
2023-04-16T03:52:01.795Z,2.15
2023-04-16T03:53:03.757Z,2.92
2023-04-16T03:54:05.652Z,1.02
2023-04-16T03:55:08.188Z,3.17
2023-04-16T03:56:10.462Z,2.17
2023-04-16T03:57:12.407Z,1.05
2023-04-16T03:58:14.438Z,2.00
2023-04-16T03:59:16.373Z,2.28
2023-04-16T04:00:18.615Z,2.63
2023-04-16T04:01:20.541Z,1.83
2023-04-16T04:02:22.561Z,6.22
2023-04-16T04:03:26.563Z,1.92
2023-04-16T04:04:28.991Z,2.13
2023-04-16T04:05:31.078Z,1.90
2023-04-16T04:06:33.142Z,2.83
2023-04-16T04:07:35.163Z,2.55
2023-04-16T04:08:37.498Z,2.78
2023-04-16T04:09:39.550Z,2.10
2023-04-16T04:10:41.455Z,2.05
2023-04-16T04:11:43.462Z,2.45
2023-04-16T04:12:45.766Z,2.50
2023-04-16T04:13:47.675Z,1.45
2023-04-16T04:14:49.540Z,1.85
2023-04-16T04:15:51.657Z,1.40
2023-04-16T04:16:53.898Z,1.98
2023-04-16T04:17:56.236Z,1.30
2023-04-16T04:18:58.234Z,1.42
2023-04-16T04:20:01.627Z,2.75
2023-04-16T04:21:08.804Z,3.20
2023-04-16T04:22:10.787Z,2.80
2023-04-16T04:23:12.706Z,2.05
2023-04-16T04:24:14.696Z,1.08
2023-04-16T04:25:17.636Z,1.00
2023-04-16T04:26:19.583Z,2.22
2023-04-16T04:27:21.526Z,3.53
2023-04-16T04:28:23.401Z,1.20
2023-04-16T04:29:25.774Z,1.60
2023-04-16T04:30:27.695Z,1.45
2023-04-16T04:31:29.986Z,1.38
2023-04-16T04:32:32.458Z,2.38
2023-04-16T04:33:34.722Z,1.73
2023-04-16T04:34:36.624Z,1.45
2023-04-16T04:35:38.548Z,1.48
2023-04-16T04:36:40.900Z,1.60
2023-04-16T04:37:43.141Z,3.53
2023-04-16T04:38:45.093Z,1.38
2023-04-16T04:39:47.059Z,1.85
2023-04-16T04:40:49.209Z,1.98
2023-04-16T04:41:51.426Z,1.45
2023-04-16T04:42:53.364Z,5.05
2023-04-16T04:43:55.292Z,2.22
2023-04-16T04:44:57.222Z,1.55
2023-04-16T04:45:59.519Z,1.30
2023-04-16T04:47:01.396Z,2.60
2023-04-16T04:48:03.616Z,2.53
2023-04-16T04:49:06.026Z,2.30
2023-04-16T04:50:08.686Z,2.55
2023-04-16T04:51:10.742Z,2.45
2023-04-16T04:52:12.935Z,1.77
2023-04-16T04:53:15.140Z,2.15
2023-04-16T04:54:17.457Z,1.45
2023-04-16T04:55:19.558Z,3.28
2023-04-16T04:56:21.518Z,3.10
2023-04-16T04:57:23.494Z,5.18
2023-04-16T04:58:25.786Z,2.30
2023-04-16T04:59:27.716Z,3.05
2023-04-16T05:00:29.584Z,2.53
2023-04-16T05:01:31.568Z,2.55
2023-04-16T05:02:34.119Z,3.35
2023-04-16T05:03:36.367Z,1.75
2023-04-16T05:04:38.357Z,2.15
2023-04-16T05:05:41.161Z,2.00
2023-04-16T05:06:43.848Z,2.00
2023-04-16T05:07:45.781Z,2.30
2023-04-16T05:08:47.632Z,4.07
2023-04-16T05:09:49.729Z,2.10
2023-04-16T05:10:52.110Z,2.10
2023-04-16T05:11:54.252Z,2.80
2023-04-16T05:12:56.269Z,2.00
2023-04-16T05:13:58.124Z,2.55
2023-04-16T05:15:00.748Z,2.10
2023-04-16T05:16:02.761Z,5.45
2023-04-16T05:17:04.705Z,2.88
2023-04-16T05:18:06.736Z,3.75
2023-04-16T05:19:09.275Z,2.60
2023-04-16T05:20:11.755Z,1.88
2023-04-16T05:21:13.769Z,2.90
2023-04-16T05:22:19.092Z,3.92
2023-04-16T05:23:21.640Z,3.22
2023-04-16T05:24:23.541Z,2.03
2023-04-16T05:25:25.614Z,2.60
2023-04-16T05:26:27.553Z,3.08
2023-04-16T05:27:29.899Z,2.60
2023-04-16T05:28:31.865Z,2.13
2023-04-16T05:29:33.802Z,2.65
2023-04-16T05:30:35.807Z,1.48
2023-04-16T05:31:38.607Z,2.03
2023-04-16T05:32:41.578Z,1.85
2023-04-16T05:33:43.523Z,2.10
2023-04-16T05:34:45.538Z,2.78
2023-04-16T05:35:47.934Z,2.42
2023-04-16T05:36:49.797Z,2.78
2023-04-16T05:37:51.673Z,1.98
2023-04-16T05:38:53.641Z,3.33
2023-04-16T05:39:56.027Z,1.70
2023-04-16T05:40:58.571Z,1.92
2023-04-16T05:42:00.735Z,2.60
2023-04-16T05:43:02.604Z,2.30
2023-04-16T05:44:05.038Z,3.10
2023-04-16T05:45:07.540Z,3.08
2023-04-16T05:46:09.507Z,2.00
2023-04-16T05:47:11.487Z,2.15
2023-04-16T05:48:14.058Z,1.77
2023-04-16T05:49:18.947Z,1.42
2023-04-16T05:50:20.959Z,3.05
2023-04-16T05:51:24.913Z,3.25
2023-04-16T05:52:27.192Z,2.45
2023-04-16T05:53:29.102Z,2.75
2023-04-16T05:54:31.109Z,1.92
2023-04-16T05:55:33.372Z,2.05
2023-04-16T05:56:35.921Z,1.80
2023-04-16T05:57:37.841Z,1.70
2023-04-16T05:58:39.731Z,2.90
2023-04-16T05:59:41.848Z,3.38
2023-04-16T06:00:44.187Z,1.70
2023-04-16T06:01:46.631Z,2.20
2023-04-16T06:02:48.834Z,2.28
2023-04-16T06:03:51.092Z,1.75
2023-04-16T06:04:53.394Z,3.53
2023-04-16T06:05:55.778Z,1.83
2023-04-16T06:06:57.830Z,2.08
2023-04-16T06:07:59.769Z,2.58
2023-04-16T06:09:02.019Z,1.75
2023-04-16T06:10:04.100Z,1.88
2023-04-16T06:11:06.181Z,2.75
2023-04-16T06:12:08.176Z,2.00
2023-04-16T06:13:10.481Z,2.08
2023-04-16T06:14:12.572Z,2.05
2023-04-16T06:15:14.558Z,2.58
2023-04-16T06:16:17.039Z,6.75
2023-04-16T06:18:21.671Z,1.27
2023-04-16T06:19:23.606Z,1.95
2023-04-16T06:20:25.682Z,1.42
2023-04-16T06:21:28.977Z,11.77
2023-04-16T06:22:31.181Z,1.48
2023-04-16T06:23:33.090Z,2.00
2023-04-16T06:24:35.020Z,1.42
2023-04-16T06:25:37.249Z,2.47
2023-04-16T06:26:39.428Z,1.55
2023-04-16T06:27:41.321Z,2.08
2023-04-16T06:28:43.215Z,1.73
2023-04-16T06:29:45.597Z,2.70
2023-04-16T06:30:47.540Z,3.78
2023-04-16T06:31:49.849Z,1.98
2023-04-16T06:32:52.095Z,2.00
2023-04-16T06:33:54.417Z,1.13
2023-04-16T06:34:56.872Z,2.47
2023-04-16T06:35:58.786Z,5.03
2023-04-16T06:37:01.543Z,2.35
2023-04-16T06:38:03.826Z,1.52
2023-04-16T06:39:05.690Z,4.00
2023-04-16T06:40:08.211Z,1.30
2023-04-16T06:41:10.236Z,1.98
2023-04-16T06:42:12.501Z,1.95
2023-04-16T06:43:16.016Z,1.88
2023-04-16T06:44:17.959Z,1.38
2023-04-16T06:45:19.960Z,3.53
2023-04-16T06:46:22.284Z,2.42
2023-04-16T06:47:24.375Z,3.00
2023-04-16T06:48:26.587Z,2.00
2023-04-16T06:49:28.515Z,2.13
2023-04-16T06:50:31.205Z,4.68
2023-04-16T06:51:33.719Z,2.85
2023-04-16T06:52:35.840Z,3.08
2023-04-16T06:53:37.978Z,4.05
2023-04-16T06:54:40.264Z,3.53
2023-04-16T06:55:42.176Z,2.03
2023-04-16T06:56:44.091Z,2.80
2023-04-16T06:57:46.134Z,1.80
2023-04-16T06:58:48.584Z,2.45
2023-04-16T06:59:50.527Z,2.28
2023-04-16T07:00:52.369Z,2.03
2023-04-16T07:01:54.397Z,3.88
2023-04-16T07:02:58.648Z,3.85
2023-04-16T07:04:01.067Z,3.00
2023-04-16T07:05:03.239Z,2.60
2023-04-16T07:06:05.207Z,1.35
2023-04-16T07:07:07.476Z,2.33
2023-04-16T07:08:09.487Z,2.38
2023-04-16T07:09:11.624Z,2.28
2023-04-16T07:10:13.839Z,1.55
2023-04-16T07:11:16.536Z,3.47
2023-04-16T07:12:19.299Z,2.65
2023-04-16T07:13:22.285Z,1.65
2023-04-16T07:14:24.287Z,2.08
2023-04-16T07:15:26.624Z,1.52
2023-04-16T07:16:28.614Z,3.13
2023-04-16T07:17:30.558Z,1.35
2023-04-16T07:18:32.811Z,2.25
2023-04-16T07:19:35.744Z,1.67
2023-04-16T07:20:37.698Z,1.98
2023-04-16T07:21:39.637Z,1.58
2023-04-16T07:22:41.491Z,1.92
2023-04-16T07:23:43.758Z,2.25
2023-04-16T07:24:45.888Z,1.42
2023-04-16T07:25:47.841Z,1.60
2023-04-16T07:26:49.791Z,1.63
2023-04-16T07:27:52.138Z,2.17
2023-04-16T07:28:54.109Z,0.88
2023-04-16T07:29:56.124Z,1.67
2023-04-16T07:30:58.184Z,1.25
2023-04-16T07:32:00.605Z,2.10
2023-04-16T07:33:04.085Z,1.52
2023-04-16T07:34:06.090Z,1.52
2023-04-16T07:35:08.328Z,1.75
2023-04-16T07:36:11.213Z,2.58
2023-04-16T07:37:13.101Z,2.60
2023-04-16T07:38:16.520Z,1.92
2023-04-16T07:39:18.460Z,2.03
2023-04-16T07:40:20.805Z,3.50
2023-04-16T07:41:22.772Z,1.80
2023-04-16T07:42:24.880Z,1.10
2023-04-16T07:43:26.840Z,2.25
2023-04-16T07:44:29.840Z,1.95
2023-04-16T07:45:31.900Z,2.03
2023-04-16T07:46:45.525Z,2.10
2023-04-16T07:47:48.722Z,2.75
2023-04-16T07:48:51.008Z,1.70
2023-04-16T07:49:53.674Z,3.03
2023-04-16T07:50:55.820Z,4.10
2023-04-16T07:51:57.798Z,2.00
2023-04-16T07:53:00.163Z,2.10
2023-04-16T07:54:02.257Z,3.17
2023-04-16T07:55:05.175Z,1.90
2023-04-16T07:56:10.137Z,2.22
2023-04-16T07:57:12.488Z,2.55
2023-04-16T07:58:14.398Z,1.70
2023-04-16T07:59:22.681Z,3.88
2023-04-16T08:00:26.667Z,1.38
2023-04-16T08:01:28.903Z,0.80
2023-04-16T08:02:31.414Z,2.97
2023-04-16T08:03:33.622Z,2.25
2023-04-16T08:04:36.189Z,1.13
2023-04-16T08:05:38.811Z,2.05
2023-04-16T08:06:41.024Z,1.45
2023-04-16T08:07:42.966Z,2.30
2023-04-16T08:08:44.927Z,1.10
2023-04-16T08:09:48.685Z,2.30
2023-04-16T08:10:55.935Z,1.02
2023-04-16T08:11:58.018Z,1.33
2023-04-16T08:13:02.893Z,2.13
2023-04-16T08:14:05.147Z,1.83
2023-04-16T08:15:07.774Z,2.33
2023-04-16T08:16:09.884Z,1.27
2023-04-16T08:17:12.699Z,1.23
2023-04-16T08:18:15.939Z,1.80
2023-04-16T08:20:19.874Z,2.03
2023-04-16T08:21:22.276Z,1.20
2023-04-16T08:22:24.774Z,1.38
2023-04-16T08:23:26.756Z,0.77
2023-04-16T08:24:28.799Z,2.22
2023-04-16T08:25:30.780Z,2.33
2023-04-16T08:26:32.996Z,1.00
2023-04-16T08:27:34.888Z,0.88
2023-04-16T08:28:36.991Z,2.28
2023-04-16T08:29:38.943Z,0.80
2023-04-16T08:30:41.216Z,1.05
2023-04-16T08:31:43.267Z,1.27
2023-04-16T08:32:46.409Z,0.98
2023-04-16T08:33:49.950Z,1.30
2023-04-16T08:34:52.320Z,0.47
2023-04-16T08:35:54.303Z,0.98
2023-04-16T08:36:56.281Z,0.75
2023-04-16T08:38:00.563Z,0.50
2023-04-16T08:39:05.093Z,1.15
2023-04-16T08:40:08.054Z,1.45
2023-04-16T08:41:13.146Z,1.98
2023-04-16T08:42:31.588Z,0.85
2023-04-16T08:43:36.948Z,1.15
2023-04-16T08:44:44.456Z,1.05
2023-04-16T08:45:47.726Z,0.60
2023-04-16T08:46:51.751Z,0.77
2023-04-16T08:47:54.292Z,1.13
2023-04-16T08:48:59.384Z,0.75
2023-04-16T08:50:02.926Z,1.27
2023-04-16T08:51:09.537Z,1.25
2023-04-16T08:52:16.933Z,0.75
2023-04-16T08:53:22.984Z,1.02
2023-04-16T08:54:32.933Z,0.60
2023-04-16T08:55:40.858Z,1.00
2023-04-16T08:56:43.794Z,3.67
2023-04-16T08:57:53.772Z,0.60
2023-04-16T08:58:56.238Z,1.50
2023-04-16T08:59:58.467Z,0.57
2023-04-16T09:01:03.367Z,1.88
2023-04-16T09:02:06.559Z,0.60
2023-04-16T09:03:09.515Z,1.48
2023-04-16T09:05:17.832Z,1.35
2023-04-16T09:06:19.913Z,0.70
2023-04-16T09:07:22.372Z,0.90
2023-04-16T09:08:25.579Z,0.60
2023-04-16T09:09:28.709Z,0.60
2023-04-16T09:10:30.733Z,0.75
2023-04-16T09:11:33.078Z,0.95
2023-04-16T09:12:36.042Z,0.75
2023-04-16T09:13:38.516Z,0.70
2023-04-16T09:14:42.101Z,0.43
2023-04-16T09:15:44.544Z,0.55
2023-04-16T09:16:50.368Z,0.68
2023-04-16T09:17:53.339Z,1.02
2023-04-16T09:18:55.298Z,1.20
2023-04-16T09:19:57.294Z,1.77
2023-04-16T09:20:59.799Z,1.02
2023-04-16T09:22:02.166Z,1.10
2023-04-16T09:23:04.301Z,0.60
2023-04-16T09:24:07.052Z,0.50
2023-04-16T09:25:10.194Z,1.80
2023-04-16T09:26:12.482Z,0.65
2023-04-16T09:27:14.405Z,0.47
2023-04-16T09:28:42.792Z,0.73
2023-04-16T09:29:44.779Z,0.70
2023-04-16T09:30:47.081Z,0.75
2023-04-16T09:32:05.397Z,0.63
2023-04-16T09:33:17.990Z,0.40
2023-04-16T09:34:19.937Z,1.00
2023-04-16T09:35:22.295Z,0.85
2023-04-16T09:36:24.199Z,0.93
2023-04-16T09:37:30.162Z,0.40
2023-04-16T09:38:52.739Z,0.57
2023-04-16T09:40:00.312Z,1.08
2023-04-16T09:41:09.068Z,1.33
2023-04-16T09:42:12.147Z,0.95
2023-04-16T09:43:16.527Z,0.75
2023-04-16T09:44:18.843Z,1.40
2023-04-16T09:45:21.081Z,2.03
2023-04-16T09:46:24.017Z,1.00
2023-04-16T09:47:38.322Z,0.82
2023-04-16T09:48:40.765Z,3.20
2023-04-16T09:49:43.421Z,1.73
2023-04-16T09:50:54.486Z,0.70
2023-04-16T09:51:57.445Z,0.47
2023-04-16T09:53:02.807Z,0.82
2023-04-16T09:54:05.747Z,1.05
2023-04-16T09:56:10.320Z,0.50
2023-04-16T09:57:12.898Z,0.40
2023-04-16T09:58:19.312Z,0.77
2023-04-16T09:59:22.427Z,1.52
2023-04-16T10:00:24.350Z,0.65
2023-04-16T10:01:26.861Z,0.63
2023-04-16T10:02:29.817Z,1.85
2023-04-16T10:03:36.588Z,1.42
2023-04-16T10:04:50.466Z,1.13
2023-04-16T10:05:54.154Z,0.60
2023-04-16T10:07:06.510Z,0.60
2023-04-16T10:08:13.321Z,2.00
2023-04-16T10:09:15.281Z,1.45
2023-04-16T10:10:17.666Z,0.93
2023-04-16T10:11:21.105Z,1.25
2023-04-16T10:12:23.065Z,1.35
2023-04-16T10:13:28.046Z,0.63
2023-04-16T10:14:30.554Z,1.63
2023-04-16T10:15:32.883Z,1.83
2023-04-16T10:16:35.586Z,2.30
2023-04-16T10:17:37.822Z,1.67
2023-04-16T10:18:43.208Z,1.25
2023-04-16T10:19:46.201Z,2.08
2023-04-16T10:20:48.721Z,2.05
2023-04-16T10:21:50.618Z,2.33
2023-04-16T10:22:54.456Z,6.05
2023-04-16T10:23:56.423Z,1.55
2023-04-16T10:24:58.913Z,9.90
2023-04-16T10:26:02.276Z,4.45
2023-04-16T10:27:04.613Z,1.20
2023-04-16T10:28:07.429Z,2.33
2023-04-16T10:30:13.241Z,2.08
2023-04-16T10:31:15.699Z,1.77
2023-04-16T10:32:18.734Z,1.20
2023-04-16T10:33:32.567Z,0.82
2023-04-16T10:34:35.414Z,0.75
2023-04-16T10:35:40.990Z,1.25
2023-04-16T10:36:43.207Z,0.82
2023-04-16T10:37:45.500Z,2.08
2023-04-16T10:38:50.350Z,0.68
2023-04-16T10:39:52.820Z,0.98
2023-04-16T10:41:03.587Z,0.93
2023-04-16T10:42:10.410Z,1.23
2023-04-16T10:43:18.229Z,1.15
2023-04-16T10:44:20.651Z,0.77
2023-04-16T10:45:29.711Z,0.68
2023-04-16T10:47:40.582Z,0.88
2023-04-16T10:48:49.701Z,1.25
2023-04-16T10:49:52.693Z,0.63
2023-04-16T10:50:58.368Z,1.48
2023-04-16T10:52:07.552Z,1.75
2023-04-16T10:53:27.112Z,1.13
2023-04-16T10:54:34.397Z,0.90
2023-04-16T10:55:39.412Z,1.75
2023-04-16T10:56:41.309Z,1.90
2023-04-16T10:57:43.989Z,1.70
2023-04-16T10:58:46.081Z,1.20
2023-04-16T10:59:49.352Z,1.08
2023-04-16T11:00:52.225Z,0.93
2023-04-16T11:01:56.627Z,2.17
2023-04-16T11:02:58.824Z,1.05
2023-04-16T11:04:22.076Z,1.13
2023-04-16T11:05:24.579Z,1.35
2023-04-16T11:06:28.251Z,0.50
2023-04-16T11:07:34.979Z,1.17
2023-04-16T11:08:51.089Z,1.10
2023-04-16T11:10:12.830Z,1.42
2023-04-16T11:11:15.189Z,1.77
2023-04-16T11:12:19.189Z,1.58
2023-04-16T11:13:21.189Z,2.10
2023-04-16T11:14:23.794Z,1.55
2023-04-16T11:16:33.130Z,1.67
2023-04-16T11:17:39.316Z,6.43
2023-04-16T11:18:50.715Z,1.83
2023-04-16T11:19:53.906Z,1.67
2023-04-16T11:20:56.227Z,1.10
2023-04-16T11:21:58.752Z,1.23
2023-04-16T11:23:00.689Z,2.53
2023-04-16T11:24:02.923Z,1.08
2023-04-16T11:25:05.295Z,0.63
2023-04-16T11:26:20.722Z,1.10
2023-04-16T11:27:26.607Z,1.40
2023-04-16T11:28:36.064Z,2.15
2023-04-16T11:29:37.960Z,1.02
2023-04-16T11:30:41.707Z,1.02
2023-04-16T11:31:50.943Z,1.05
2023-04-16T11:32:53.394Z,0.90
2023-04-16T11:33:56.666Z,1.42
2023-04-16T11:35:00.042Z,0.60
2023-04-16T11:36:02.003Z,2.97
2023-04-16T11:37:04.265Z,1.20
2023-04-16T11:38:07.517Z,2.78
2023-04-16T11:39:09.816Z,2.17
2023-04-16T11:40:12.732Z,1.05
2023-04-16T11:41:21.091Z,0.85
2023-04-16T11:42:23.232Z,1.63
2023-04-16T11:43:26.850Z,1.52
2023-04-16T11:44:29.472Z,1.52
2023-04-16T11:45:32.189Z,0.68
2023-04-16T11:46:43.127Z,0.68
2023-04-16T11:47:53.357Z,1.00
2023-04-16T11:48:56.339Z,1.23
2023-04-16T11:49:59.132Z,0.80
2023-04-16T11:51:01.260Z,1.17
2023-04-16T11:52:04.981Z,1.83
2023-04-16T11:53:06.942Z,2.28
2023-04-16T11:54:11.807Z,1.50
2023-04-16T11:55:14.353Z,1.02
2023-04-16T11:56:17.777Z,1.77
2023-04-16T11:57:31.030Z,0.63
2023-04-16T11:58:33.338Z,5.47
2023-04-16T11:59:37.203Z,0.80
2023-04-16T12:01:00.117Z,0.50
2023-04-16T12:02:02.218Z,0.93
2023-04-16T12:03:04.727Z,2.60
2023-04-16T12:04:07.775Z,1.77
2023-04-16T12:05:30.896Z,1.00
2023-04-16T12:06:33.133Z,1.50
2023-04-16T12:07:48.346Z,0.95
2023-04-16T12:08:50.244Z,0.70
2023-04-16T12:10:04.771Z,1.48
2023-04-16T12:11:06.978Z,1.58
2023-04-16T12:12:28.257Z,1.45
2023-04-16T12:13:30.866Z,2.80
2023-04-16T12:14:33.184Z,1.45
2023-04-16T12:16:16.982Z,1.08
2023-04-16T12:17:20.968Z,0.93
2023-04-16T12:18:29.326Z,1.23
2023-04-16T12:19:31.172Z,1.13
2023-04-16T12:20:43.776Z,1.08
2023-04-16T12:21:50.017Z,1.38
2023-04-16T12:22:53.026Z,1.48
2023-04-16T12:23:55.146Z,1.23
2023-04-16T12:24:59.654Z,1.38
2023-04-16T12:26:10.934Z,0.95
2023-04-16T12:27:13.219Z,0.85
2023-04-16T12:28:16.741Z,1.00
2023-04-16T12:29:20.161Z,2.95
2023-04-16T12:30:23.961Z,1.55
2023-04-16T12:31:38.563Z,0.85
2023-04-16T12:32:41.996Z,0.98
2023-04-16T12:33:44.031Z,0.77
2023-04-16T12:34:52.207Z,2.25
2023-04-16T12:35:54.293Z,1.10
2023-04-16T12:37:11.450Z,0.68
2023-04-16T12:38:15.343Z,1.10
2023-04-16T12:39:17.740Z,1.33
2023-04-16T12:40:19.597Z,1.02
2023-04-16T12:41:22.142Z,1.25
2023-04-16T12:42:24.118Z,0.85
2023-04-16T12:43:26.675Z,1.65
2023-04-16T12:44:29.595Z,2.10
2023-04-16T12:45:31.604Z,0.90
2023-04-16T12:46:33.649Z,9.18
2023-04-16T12:47:36.040Z,4.68
2023-04-16T12:48:38.165Z,18.50
2023-04-16T12:49:40.347Z,1.10
2023-04-16T12:50:44.565Z,1.30
2023-04-16T12:51:47.156Z,1.40
2023-04-16T12:52:49.327Z,0.68
2023-04-16T12:53:51.248Z,1.75
2023-04-16T12:54:53.554Z,3.05
2023-04-16T12:55:55.975Z,2.85
2023-04-16T12:56:57.909Z,3.35
2023-04-16T12:57:59.851Z,39.85
2023-04-16T12:59:02.006Z,18.67
2023-04-16T13:00:06.590Z,47.70
2023-04-16T13:01:08.538Z,39.33
2023-04-16T13:02:10.683Z,141.30
2023-04-16T13:03:12.928Z,74.78
2023-04-16T13:04:19.226Z,7.47
2023-04-16T13:05:21.230Z,1.95
2023-04-16T13:06:23.207Z,0.68
2023-04-16T13:07:26.833Z,1.98
2023-04-16T13:08:29.975Z,0.98
2023-04-16T13:10:33.849Z,1.13
2023-04-16T13:11:35.884Z,1.33
2023-04-16T13:12:38.183Z,1.50
2023-04-16T13:13:40.280Z,1.00
2023-04-16T13:14:44.618Z,9.05
2023-04-16T13:15:46.975Z,1.63
2023-04-16T13:16:49.203Z,1.08
2023-04-16T13:17:51.231Z,1.58
2023-04-16T13:18:53.160Z,0.65
2023-04-16T13:19:55.175Z,1.85
2023-04-16T13:20:57.548Z,1.42
2023-04-16T13:21:59.840Z,0.95
2023-04-16T13:23:01.863Z,1.17
2023-04-16T13:24:03.975Z,0.82
2023-04-16T13:25:07.362Z,14.55
2023-04-16T13:26:09.575Z,2.25
2023-04-16T13:27:11.602Z,2.22
2023-04-16T13:28:13.663Z,2.75
2023-04-16T13:29:15.929Z,1.15
2023-04-16T13:30:17.906Z,1.75
2023-04-16T13:31:22.410Z,0.90
2023-04-16T13:32:24.546Z,0.75
2023-04-16T13:33:27.049Z,2.88
2023-04-16T13:34:29.170Z,1.10
2023-04-16T13:35:31.237Z,0.90
2023-04-16T13:36:34.171Z,1.00
2023-04-16T13:37:36.617Z,1.35
2023-04-16T13:38:39.724Z,1.38
2023-04-16T13:39:41.647Z,1.25
2023-04-16T13:40:43.988Z,0.63
2023-04-16T13:41:46.334Z,0.98
2023-04-16T13:42:48.268Z,1.65
2023-04-16T13:43:50.198Z,1.65
2023-04-16T13:44:54.332Z,1.92
2023-04-16T13:45:56.617Z,2.70
2023-04-16T13:46:59.049Z,1.50
2023-04-16T13:48:02.758Z,1.05
2023-04-16T13:49:04.724Z,1.77
2023-04-16T13:50:08.235Z,3.13
2023-04-16T13:51:10.967Z,0.90
2023-04-16T13:52:12.884Z,0.98
2023-04-16T13:53:14.867Z,1.08
2023-04-16T13:54:17.306Z,0.90
2023-04-16T13:55:19.361Z,2.75
2023-04-16T13:56:21.267Z,1.88
2023-04-16T13:57:23.223Z,0.93
2023-04-16T13:58:26.284Z,0.88
2023-04-16T13:59:28.284Z,1.17
2023-04-16T14:00:30.280Z,1.17
2023-04-16T14:01:32.535Z,1.33
2023-04-16T14:02:35.088Z,2.03
2023-04-16T14:03:39.093Z,1.02
2023-04-16T14:04:41.755Z,1.20
2023-04-16T14:05:43.690Z,1.40
2023-04-16T14:06:45.916Z,0.50
2023-04-16T14:07:47.932Z,1.15
2023-04-16T14:08:49.803Z,0.98
2023-04-16T14:09:51.726Z,1.50
2023-04-16T14:10:55.702Z,1.23
2023-04-16T14:11:57.796Z,1.15
2023-04-16T14:12:59.775Z,1.02
2023-04-16T14:14:01.822Z,1.60
2023-04-16T14:15:06.687Z,1.20